Time;durP1;ratioP1;P1;durP2;ratioP2;P2;SDS_P1;SDS_P2;PMS_P1;PMS_P2;Temp;Humidity;BMP_temperature;BMP_pressure;BME280_temperature;BME280_humidity;BME280_pressure;Samples;Min_cycle;Max_cycle;Signal;HPM_P1;HPM_P2
2023/09/29 00:00:34;;;;;;;;;;;;;;;16.64;54.80;100947.56;4957111;29;1045;-55
2023/09/29 00:02:59;;;;;;;;;;;;;;;16.57;54.52;100947.00;4957523;29;1109;-56
2023/09/29 00:05:27;;;;;;;;;;;;;;;16.50;54.47;100947.25;4955107;29;1080;-56
2023/09/29 00:07:52;;;;;;;;;;;;;;;16.43;54.45;100950.22;4947382;29;1017;-56
2023/09/29 00:10:20;;;;;;;;;;;;;;;16.42;54.39;100951.34;4955118;29;1180;-55
2023/09/29 00:12:46;;;;;;;;;;;;;;;16.86;55.60;100949.28;4947542;29;1149;-55
2023/09/29 00:15:11;;;;;;;;;;;;;;;17.46;55.72;100941.41;4954669;29;1064;-57
2023/09/29 00:17:37;;;;;;;;;;;;;;;16.99;55.72;100940.53;4956886;29;2720;-54
2023/09/29 00:20:12;;;;;;;;;;;;;;;16.82;55.43;100939.94;4957368;29;1082;-56
2023/09/29 00:22:38;;;;;;;;;;;;;;;16.67;55.24;100941.53;4957347;29;1045;-53
2023/09/29 00:25:04;;;;;;;;;;;;;;;16.61;55.06;100939.88;4957904;29;1061;-56
2023/09/29 00:27:30;;;;;;;;;;;;;;;16.51;54.99;100943.41;4947055;29;1054;-55
2023/09/29 00:29:55;;;;;;;;;;;;;;;16.51;54.58;100934.31;4944738;29;1081;-54
2023/09/29 00:32:21;;;;;;;;;;;;;;;16.44;54.70;100931.84;4957544;29;1026;-56
2023/09/29 00:34:46;;;;;;;;;;;;;;;16.54;54.80;100934.63;4957119;29;1105;-57
2023/09/29 00:37:12;;;;;;;;;;;;;;;17.65;55.79;100924.34;4957511;29;1910;-57
2023/09/29 00:39:38;;;;;;;;;;;;;;;17.20;55.84;100932.31;4952619;29;1076;-57
2023/09/29 00:42:06;;;;;;;;;;;;;;;16.89;55.84;100927.63;4962827;28;1225;-57
2023/09/29 00:44:32;;;;;;;;;;;;;;;16.74;55.56;100930.28;4953146;28;1096;-56
2023/09/29 00:46:57;;;;;;;;;;;;;;;16.67;55.38;100930.53;4952930;29;2301;-56
2023/09/29 00:49:23;;;;;;;;;;;;;;;16.60;54.96;100921.75;4954295;29;986;-57
2023/09/29 00:51:49;;;;;;;;;;;;;;;16.58;54.73;100921.19;4951461;29;1068;-57
2023/09/29 00:54:14;;;;;;;;;;;;;;;16.52;54.72;100925.00;4959476;29;1200;-57
2023/09/29 00:56:40;;;;;;;;;;;;;;;16.40;54.59;100920.59;4960901;29;2050;-56
2023/09/29 00:59:07;;;;;;;;;;;;;;;16.39;54.61;100918.09;4946712;29;1051;-56
2023/09/29 01:01:36;;;;;;;;;;;;;;;16.41;54.42;100926.88;4959592;29;1145;-57
2023/09/29 01:04:02;;;;;;;;;;;;;;;17.47;55.89;100931.22;4955251;29;1057;-57
2023/09/29 01:06:29;;;;;;;;;;;;;;;17.34;56.15;100933.41;4950412;29;1191;-57
2023/09/29 01:08:56;;;;;;;;;;;;;;;16.97;55.97;100923.53;4958775;29;997;-56
2023/09/29 01:11:21;;;;;;;;;;;;;;;16.77;55.79;100930.59;4959289;29;1282;-56
2023/09/29 01:13:48;;;;;;;;;;;;;;;16.68;55.34;100925.91;4947577;29;1082;-57
2023/09/29 01:16:14;;;;;;;;;;;;;;;16.60;55.35;100921.75;4948568;29;2406;-55
2023/09/29 01:18:40;;;;;;;;;;;;;;;16.56;54.99;100924.22;4960023;28;1107;-57
2023/09/29 01:21:06;;;;;;;;;;;;;;;16.53;54.64;100921.19;4943485;29;1093;-57
2023/09/29 01:23:32;;;;;;;;;;;;;;;16.45;54.71;100916.22;4960488;29;1177;-57
2023/09/29 01:25:59;;;;;;;;;;;;;;;16.41;54.38;100915.91;4960543;29;1093;-56
2023/09/29 01:28:24;;;;;;;;;;;;;;;16.34;54.42;100920.81;4953531;29;1104;-57
2023/09/29 01:30:53;;;;;;;;;;;;;;;17.40;56.22;100917.75;4952477;29;1001;-56
2023/09/29 01:33:19;;;;;;;;;;;;;;;17.30;56.13;100924.06;4959670;29;1021;-58
2023/09/29 01:35:44;;;;;;;;;;;;;;;16.91;55.93;100916.34;4960265;29;989;-57
2023/09/29 01:38:10;;;;;;;;;;;;;;;16.77;55.67;100924.25;4954624;29;1910;-56
2023/09/29 01:40:35;;;;;;;;;;;;;;;16.70;55.18;100926.44;4951787;29;835;-56
2023/09/29 01:43:01;;;;;;;;;;;;;;;16.62;54.87;100927.81;4956012;29;1006;-57
2023/09/29 01:45:26;;;;;;;;;;;;;;;16.54;55.04;100926.41;4951159;29;1046;-54
2023/09/29 01:47:52;;;;;;;;;;;;;;;16.52;54.79;100939.56;4958437;29;2359;-55
2023/09/29 01:50:18;;;;;;;;;;;;;;;16.46;54.72;100940.63;4950023;29;1049;-57
2023/09/29 01:52:44;;;;;;;;;;;;;;;16.37;54.47;100937.59;4950970;29;1169;-58
2023/09/29 01:55:11;;;;;;;;;;;;;;;16.59;55.58;100944.78;4959986;29;1068;-57
2023/09/29 01:57:38;;;;;;;;;;;;;;;17.65;55.71;100941.66;4946550;28;2015;-57
2023/09/29 02:00:04;;;;;;;;;;;;;;;17.06;56.25;100943.03;4958521;29;1621;-57
2023/09/29 02:02:38;;;;;;;;;;;;;;;16.83;55.94;100944.31;4941519;29;1172;-57
2023/09/29 02:05:04;;;;;;;;;;;;;;;16.72;55.54;100938.00;4954339;29;867;-56
2023/09/29 02:07:30;;;;;;;;;;;;;;;16.61;55.34;100942.63;4959293;29;1136;-57
2023/09/29 02:09:55;;;;;;;;;;;;;;;16.54;55.21;100933.81;4959462;29;1054;-56
2023/09/29 02:12:21;;;;;;;;;;;;;;;16.49;54.91;100939.28;4954650;29;1105;-56
2023/09/29 02:14:47;;;;;;;;;;;;;;;16.45;54.72;100941.72;4950171;29;1223;-56
2023/09/29 02:17:13;;;;;;;;;;;;;;;17.19;56.24;100947.16;4952724;29;2625;-57
2023/09/29 02:19:38;;;;;;;;;;;;;;;17.38;56.33;100939.22;4950110;29;1172;-57
2023/09/29 02:22:06;;;;;;;;;;;;;;;17.02;56.06;100937.25;4946226;29;1208;-57
2023/09/29 02:24:33;;;;;;;;;;;;;;;16.80;55.85;100940.19;4947990;29;1101;-57
2023/09/29 02:26:59;;;;;;;;;;;;;;;16.69;55.53;100939.34;4958108;29;994;-57
2023/09/29 02:29:26;;;;;;;;;;;;;;;16.56;55.71;100939.84;4957408;29;990;-57
2023/09/29 02:31:51;;;;;;;;;;;;;;;16.57;55.08;100956.03;4957714;29;1618;-56
2023/09/29 02:34:17;;;;;;;;;;;;;;;16.52;55.03;100950.56;4947235;29;1105;-55
2023/09/29 02:36:44;;;;;;;;;;;;;;;16.46;54.80;100953.53;4958477;29;1981;-56
2023/09/29 02:39:09;;;;;;;;;;;;;;;16.41;54.76;100948.84;4947017;29;1010;-55
2023/09/29 02:41:35;;;;;;;;;;;;;;;17.28;56.49;100954.59;4957655;29;1069;-57
2023/09/29 02:44:01;;;;;;;;;;;;;;;17.23;56.37;100948.25;4958770;29;1134;-57
2023/09/29 02:46:27;;;;;;;;;;;;;;;16.89;56.23;100948.78;4953168;29;2448;-56
2023/09/29 02:48:52;;;;;;;;;;;;;;;16.71;56.14;100947.31;4940005;29;1065;-57
2023/09/29 02:51:18;;;;;;;;;;;;;;;16.58;55.65;100948.66;4952812;29;1144;-56
2023/09/29 02:53:44;;;;;;;;;;;;;;;16.58;55.33;100941.22;4943277;29;1025;-56
2023/09/29 02:56:11;;;;;;;;;;;;;;;16.58;54.89;100951.41;4957597;29;1038;-56
2023/09/29 02:58:38;;;;;;;;;;;;;;;16.51;54.83;100956.28;4958575;29;1028;-57
2023/09/29 03:01:05;;;;;;;;;;;;;;;16.40;54.80;100953.50;4958408;29;1215;-56
2023/09/29 03:03:30;;;;;;;;;;;;;;;17.36;56.72;100964.22;4958293;29;1215;-56
2023/09/29 03:05:58;;;;;;;;;;;;;;;17.24;56.25;100960.91;4944017;29;1048;-56
2023/09/29 03:08:23;;;;;;;;;;;;;;;16.95;56.17;100966.09;4957843;28;1080;-56
2023/09/29 03:10:49;;;;;;;;;;;;;;;16.77;55.84;100951.72;4956980;29;1115;-55
2023/09/29 03:13:15;;;;;;;;;;;;;;;16.72;55.43;100962.72;4958488;29;1021;-54
2023/09/29 03:15:41;;;;;;;;;;;;;;;16.66;54.89;100964.63;4956560;29;1413;-53
2023/09/29 03:18:07;;;;;;;;;;;;;;;16.55;54.93;100969.22;4958039;29;2599;-57
2023/09/29 03:20:32;;;;;;;;;;;;;;;16.52;54.70;100964.28;4946334;29;1152;-52
2023/09/29 03:23:04;;;;;;;;;;;;;;;16.42;54.67;100973.31;4958369;28;1021;-53
2023/09/29 03:25:29;;;;;;;;;;;;;;;16.42;54.41;100976.03;4945793;29;1004;-52
2023/09/29 03:27:55;;;;;;;;;;;;;;;16.96;56.18;100985.03;4957569;29;1061;-49
2023/09/29 03:30:21;;;;;;;;;;;;;;;17.51;56.54;100976.31;4946059;29;870;-56
2023/09/29 03:32:47;;;;;;;;;;;;;;;17.06;56.36;100985.06;4943517;29;1041;-57
2023/09/29 03:35:13;;;;;;;;;;;;;;;16.86;55.80;100980.31;4945643;29;1050;-57
2023/09/29 03:37:39;;;;;;;;;;;;;;;16.74;55.66;100975.03;4946044;29;1906;-56
2023/09/29 03:40:13;;;;;;;;;;;;;;;16.67;55.41;100979.97;4957575;29;1101;-56
2023/09/29 03:42:41;;;;;;;;;;;;;;;16.59;55.12;100972.25;4953414;29;1177;-55
2023/09/29 03:45:08;;;;;;;;;;;;;;;16.51;54.73;100964.53;4958165;29;1077;-48
2023/09/29 03:47:33;;;;;;;;;;;;;;;16.48;54.71;100965.06;4957381;29;2418;-52
2023/09/29 03:49:59;;;;;;;;;;;;;;;16.38;54.82;100954.88;4957587;29;994;-53
2023/09/29 03:52:25;;;;;;;;;;;;;;;16.38;54.33;100966.69;4955997;29;1014;-56
2023/09/29 03:54:51;;;;;;;;;;;;;;;17.02;56.23;100958.41;4949683;29;1129;-53
2023/09/29 03:57:16;;;;;;;;;;;;;;;17.55;55.94;100960.91;4951537;29;1903;-51
2023/09/29 03:59:42;;;;;;;;;;;;;;;17.06;56.14;100963.06;4947509;29;1147;-51
2023/09/29 04:02:08;;;;;;;;;;;;;;;16.83;56.00;100961.63;4957720;29;1100;-56
2023/09/29 04:04:34;;;;;;;;;;;;;;;16.72;55.77;100957.22;4955055;29;1005;-57
2023/09/29 04:06:59;;;;;;;;;;;;;;;16.67;55.31;100958.00;4952143;29;1199;-56
2023/09/29 04:09:25;;;;;;;;;;;;;;;16.51;55.15;100948.06;4957741;29;1009;-53
2023/09/29 04:11:50;;;;;;;;;;;;;;;16.50;54.80;100952.72;4957295;29;1033;-53
2023/09/29 04:14:16;;;;;;;;;;;;;;;16.41;54.86;100959.81;4957775;29;1033;-56
2023/09/29 04:16:41;;;;;;;;;;;;;;;17.02;56.57;100961.97;4945549;29;1940;-57
2023/09/29 04:19:07;;;;;;;;;;;;;;;17.52;56.22;100954.03;4950687;29;1069;-54
2023/09/29 04:21:32;;;;;;;;;;;;;;;17.03;56.27;100949.88;4956160;29;997;-54
2023/09/29 04:23:58;;;;;;;;;;;;;;;16.80;56.09;100955.84;4961560;29;1129;-54
2023/09/29 04:26:23;;;;;;;;;;;;;;;16.71;56.01;100952.81;4959101;29;1097;-56
2023/09/29 04:28:51;;;;;;;;;;;;;;;16.68;55.32;100956.91;4945361;28;1216;-58
2023/09/29 04:31:18;;;;;;;;;;;;;;;16.59;55.30;100950.28;4952623;29;1187;-58
2023/09/29 04:33:43;;;;;;;;;;;;;;;16.53;54.85;100952.19;4949573;29;1049;-58
2023/09/29 04:36:09;;;;;;;;;;;;;;;16.51;54.68;100957.13;4961019;29;1200;-55
2023/09/29 04:38:36;;;;;;;;;;;;;;;16.81;56.66;100958.31;4952022;29;1965;-56
2023/09/29 04:41:01;;;;;;;;;;;;;;;16.73;56.04;100972.56;4945690;29;1125;-56
2023/09/29 04:43:28;;;;;;;;;;;;;;;16.47;54.10;100963.44;4961092;29;1084;-58
2023/09/29 04:45:54;;;;;;;;;;;;;;;16.37;52.07;100970.53;4960462;29;1037;-55
2023/09/29 04:48:20;;;;;;;;;;;;;;;16.25;51.23;100965.25;4961907;29;2506;-57
2023/09/29 04:50:45;;;;;;;;;;;;;;;16.20;50.34;100970.72;4959139;29;1025;-56
2023/09/29 04:53:11;;;;;;;;;;;;;;;16.14;50.03;100970.94;4945078;29;1123;-58
2023/09/29 04:55:36;;;;;;;;;;;;;;;16.16;49.42;100968.75;4954404;29;1191;-57
2023/09/29 04:58:01;;;;;;;;;;;;;;;16.93;51.77;100978.16;4949828;29;1981;-56
2023/09/29 05:00:27;;;;;;;;;;;;;;;16.52;51.69;100978.00;4960381;29;1077;-57
2023/09/29 05:02:52;;;;;;;;;;;;;;;16.37;50.62;100981.50;4953299;29;1297;-54
2023/09/29 05:05:18;;;;;;;;;;;;;;;16.31;49.72;100982.56;4955487;29;1014;-49
2023/09/29 05:07:44;;;;;;;;;;;;;;;16.88;51.16;100982.78;4960379;29;1113;-55
2023/09/29 05:10:16;;;;;;;;;;;;;;;16.55;50.71;100998.59;4961344;29;1184;-55
2023/09/29 05:12:43;;;;;;;;;;;;;;;16.53;49.56;100989.81;4961205;29;1061;-56
2023/09/29 05:15:09;;;;;;;;;;;;;;;16.40;48.78;100993.88;4948234;29;1022;-56
2023/09/29 05:17:34;;;;;;;;;;;;;;;16.28;48.59;100983.09;4960207;29;1906;-57
2023/09/29 05:20:00;;;;;;;;;;;;;;;17.10;49.81;100990.84;4948214;29;1218;-56
2023/09/29 05:22:25;;;;;;;;;;;;;;;16.65;50.10;100987.66;4960515;29;1080;-52
2023/09/29 05:24:53;;;;;;;;;;;;;;;16.49;49.24;100994.19;4947777;29;1113;-54
2023/09/29 05:27:19;;;;;;;;;;;;;;;16.50;48.25;101006.81;4949509;29;1140;-53
2023/09/29 05:29:44;;;;;;;;;;;;;;;16.40;48.33;100997.44;4957052;29;1191;-52
2023/09/29 05:32:10;;;;;;;;;;;;;;;16.45;47.86;101001.28;4951602;28;1177;-51
2023/09/29 05:34:35;;;;;;;;;;;;;;;16.34;47.47;101003.16;4956325;29;1022;-52
2023/09/29 05:37:02;;;;;;;;;;;;;;;17.00;49.30;101001.78;4960029;29;1983;-57
2023/09/29 05:39:27;;;;;;;;;;;;;;;16.73;49.90;101011.00;4959740;28;1221;-47
2023/09/29 05:41:53;;;;;;;;;;;;;;;16.75;50.61;101009.66;4954864;28;1215;-54
2023/09/29 05:44:18;;;;;;;;;;;;;;;16.64;49.76;101029.13;4960539;29;1089;-51
2023/09/29 05:46:44;;;;;;;;;;;;;;;16.52;49.01;101015.59;4947559;29;1144;-51
2023/09/29 05:49:10;;;;;;;;;;;;;;;16.53;48.49;101012.59;4952033;29;1092;-50
2023/09/29 05:51:36;;;;;;;;;;;;;;;17.00;49.14;101026.50;4942422;29;1188;-52
2023/09/29 05:54:03;;;;;;;;;;;;;;;17.06;50.43;101014.47;4958624;29;1129;-49
2023/09/29 05:56:31;;;;;;;;;;;;;;;16.79;49.80;101020.09;4960203;29;1973;-49
2023/09/29 05:58:57;;;;;;;;;;;;;;;16.72;49.01;101026.69;4959870;29;1132;-50
2023/09/29 06:01:25;;;;;;;;;;;;;;;16.64;48.81;101032.69;4957151;29;1307;-52
2023/09/29 06:03:50;;;;;;;;;;;;;;;16.65;48.08;101028.84;4950490;29;1108;-48
2023/09/29 06:06:16;;;;;;;;;;;;;;;16.60;47.76;101037.88;4952452;28;1097;-54
2023/09/29 06:08:44;;;;;;;;;;;;;;;16.54;47.61;101033.47;4959501;28;1373;-49
2023/09/29 06:11:10;;;;;;;;;;;;;;;16.52;47.70;101037.56;4960333;29;1093;-44
2023/09/29 06:13:35;;;;;;;;;;;;;;;16.50;47.33;101034.25;4947004;29;1195;-55
2023/09/29 06:16:03;;;;;;;;;;;;;;;16.61;47.11;101046.94;4959337;29;1287;-53
2023/09/29 06:18:29;;;;;;;;;;;;;;;17.12;49.35;101032.59;4962036;28;1910;-53
2023/09/29 06:20:54;;;;;;;;;;;;;;;16.86;48.77;101032.50;4944905;28;1327;-51
2023/09/29 06:23:20;;;;;;;;;;;;;;;16.71;48.50;101033.25;4947785;29;1040;-55
2023/09/29 06:25:45;;;;;;;;;;;;;;;16.65;47.83;101038.97;4953272;29;1118;-53
2023/09/29 06:28:12;;;;;;;;;;;;;;;16.64;47.81;101037.34;4959574;28;1056;-54
2023/09/29 06:30:38;;;;;;;;;;;;;;;16.60;47.18;101039.78;4958461;29;1084;-52
2023/09/29 06:33:03;;;;;;;;;;;;;;;16.56;47.09;101038.69;4951213;28;1088;-53
2023/09/29 06:35:29;;;;;;;;;;;;;;;16.56;46.96;101044.16;4959196;28;1322;-55
2023/09/29 06:37:55;;;;;;;;;;;;;;;16.45;47.11;101040.53;4958651;28;1907;-52
2023/09/29 06:40:22;;;;;;;;;;;;;;;16.49;46.94;101038.91;4960427;28;1416;-52
2023/09/29 06:42:48;;;;;;;;;;;;;;;16.51;46.63;101035.91;4954977;28;1161;-54
2023/09/29 06:45:13;;;;;;;;;;;;;;;16.62;46.89;101042.28;4968004;28;1140;-54
2023/09/29 06:47:39;;;;;;;;;;;;;;;17.00;48.53;101040.25;4959025;28;1353;-53
2023/09/29 06:50:05;;;;;;;;;;;;;;;16.75;48.49;101036.31;4958930;28;1346;-55
2023/09/29 06:52:30;;;;;;;;;;;;;;;16.68;47.91;101041.22;4958001;28;954;-53
2023/09/29 06:54:56;;;;;;;;;;;;;;;16.69;47.09;101043.69;4942537;29;958;-56
2023/09/29 06:57:21;;;;;;;;;;;;;;;16.58;47.04;101037.31;4953296;29;1965;-55
2023/09/29 06:59:48;;;;;;;;;;;;;;;16.66;47.48;101032.41;4957140;29;1144;-52
2023/09/29 07:02:13;;;;;;;;;;;;;;;17.14;48.70;101037.81;4958424;29;1030;-56
2023/09/29 07:04:39;;;;;;;;;;;;;;;16.86;48.24;101039.91;4951447;29;1081;-53
2023/09/29 07:07:04;;;;;;;;;;;;;;;16.71;47.88;101040.69;4941987;29;1043;-53
2023/09/29 07:09:30;;;;;;;;;;;;;;;16.67;47.29;101034.06;4958314;29;1180;-54
2023/09/29 07:11:55;;;;;;;;;;;;;;;16.65;47.12;101028.84;4957156;29;1204;-55
2023/09/29 07:14:21;;;;;;;;;;;;;;;16.64;46.88;101035.41;4958558;29;1049;-55
2023/09/29 07:16:49;;;;;;;;;;;;;;;17.00;47.22;101041.09;4958517;29;1902;-55
2023/09/29 07:19:15;;;;;;;;;;;;;;;17.13;48.70;101036.19;4953655;29;913;-55
2023/09/29 07:21:41;;;;;;;;;;;;;;;16.89;48.23;101031.16;4957179;29;1109;-55
2023/09/29 07:24:07;;;;;;;;;;;;;;;16.81;47.77;101043.44;4939247;29;1054;-53
2023/09/29 07:26:32;;;;;;;;;;;;;;;16.73;47.48;101044.81;4939592;29;1042;-54
2023/09/29 07:29:01;;;;;;;;;;;;;;;16.70;47.24;101053.56;4958172;29;1176;-52
2023/09/29 07:31:36;;;;;;;;;;;;;;;16.74;46.78;101051.13;4954222;29;1144;-54
2023/09/29 07:34:01;;;;;;;;;;;;;;;16.64;46.73;101049.16;4949936;29;1160;-52
2023/09/29 07:36:31;;;;;;;;;;;;;;;16.60;46.77;101056.28;4957656;29;1894;-50
2023/09/29 07:38:57;;;;;;;;;;;;;;;16.65;46.42;101061.78;4958049;29;1136;-50
2023/09/29 07:41:22;;;;;;;;;;;;;;;16.56;46.37;101063.38;4953429;29;1153;-54
2023/09/29 07:43:48;;;;;;;;;;;;;;;17.53;47.76;101064.81;4942071;29;1054;-56
2023/09/29 07:46:13;;;;;;;;;;;;;;;17.09;48.00;101068.84;4943893;29;1203;-51
2023/09/29 07:48:39;;;;;;;;;;;;;;;16.95;47.72;101064.97;4958226;29;1068;-57
2023/09/29 07:51:04;;;;;;;;;;;;;;;16.85;47.13;101073.97;4945030;29;1148;-55
2023/09/29 07:53:30;;;;;;;;;;;;;;;16.71;46.98;101073.63;4958308;29;1049;-56
2023/09/29 07:55:55;;;;;;;;;;;;;;;16.79;46.29;101067.63;4948035;28;1129;-54
2023/09/29 07:58:21;;;;;;;;;;;;;;;16.74;46.21;101068.41;4958385;29;1915;-53
2023/09/29 08:00:46;;;;;;;;;;;;;;;16.71;46.25;101066.22;4945223;29;1200;-57
2023/09/29 08:03:12;;;;;;;;;;;;;;;16.73;45.95;101072.28;4957778;29;1069;-55
2023/09/29 08:05:37;;;;;;;;;;;;;;;16.58;46.04;101064.78;4945160;29;1045;-55
2023/09/29 08:08:03;;;;;;;;;;;;;;;17.54;47.40;101064.56;4952654;29;893;-52
2023/09/29 08:10:29;;;;;;;;;;;;;;;17.09;47.98;101060.63;4957798;29;1113;-54
2023/09/29 08:12:55;;;;;;;;;;;;;;;16.99;47.30;101066.91;4956711;29;1278;-55
2023/09/29 08:15:21;;;;;;;;;;;;;;;16.81;47.23;101064.59;4943470;29;1030;-53
2023/09/29 08:17:47;;;;;;;;;;;;;;;16.80;46.72;101061.03;4957575;29;1972;-56
2023/09/29 08:20:14;;;;;;;;;;;;;;;16.82;46.41;101058.84;4946568;29;1053;-56
2023/09/29 08:22:40;;;;;;;;;;;;;;;16.77;46.31;101061.56;4957543;28;1105;-54
2023/09/29 08:25:07;;;;;;;;;;;;;;;16.72;46.23;101054.13;4956670;29;1003;-55
2023/09/29 08:27:34;;;;;;;;;;;;;;;16.63;46.29;101055.72;4956029;29;1115;-57
2023/09/29 08:30:00;;;;;;;;;;;;;;;16.62;46.38;101054.09;4944514;29;1037;-55
2023/09/29 08:32:25;;;;;;;;;;;;;;;16.58;46.42;101061.22;4955011;29;975;-53
2023/09/29 08:34:51;;;;;;;;;;;;;;;16.57;46.05;101054.06;4944484;29;1164;-54
2023/09/29 08:37:17;;;;;;;;;;;;;;;16.53;46.31;101056.50;4956384;29;1959;-56
2023/09/29 08:39:42;;;;;;;;;;;;;;;16.68;45.99;101069.50;4957518;29;1093;-54
2023/09/29 08:42:10;;;;;;;;;;;;;;;16.54;45.96;101065.59;4956482;29;1026;-55
2023/09/29 08:44:36;;;;;;;;;;;;;;;16.57;45.98;101062.31;4955206;29;1018;-56
2023/09/29 08:47:01;;;;;;;;;;;;;;;16.53;46.16;101058.44;4955091;29;1253;-56
2023/09/29 08:49:30;;;;;;;;;;;;;;;16.57;45.75;101056.81;4957272;29;1161;-55
2023/09/29 08:51:55;;;;;;;;;;;;;;;16.54;45.78;101044.44;4957826;28;1323;-56
2023/09/29 08:54:22;;;;;;;;;;;;;;;16.55;45.66;101050.75;4957035;29;1314;-56
2023/09/29 08:56:48;;;;;;;;;;;;;;;16.54;45.73;101051.84;4956003;29;1973;-54
2023/09/29 08:59:13;;;;;;;;;;;;;;;16.51;45.87;101055.09;4955828;29;1216;-55
2023/09/29 09:01:40;;;;;;;;;;;;;;;16.78;46.38;101046.75;4957456;29;1049;-54
2023/09/29 09:04:05;;;;;;;;;;;;;;;17.18;48.01;101052.66;4957451;28;1112;-54
2023/09/29 09:06:31;;;;;;;;;;;;;;;16.87;47.77;101050.63;4957873;28;1179;-53
2023/09/29 09:08:56;;;;;;;;;;;;;;;16.83;47.40;101041.28;4948412;29;1197;-53
2023/09/29 09:11:23;;;;;;;;;;;;;;;16.72;47.01;101043.16;4960692;29;1041;-50
2023/09/29 09:13:58;;;;;;;;;;;;;;;16.71;46.73;101041.50;4948045;29;982;-48
2023/09/29 09:16:28;;;;;;;;;;;;;;;16.68;46.44;101053.00;4960297;29;1049;-51
2023/09/29 09:18:54;;;;;;;;;;;;;;;16.72;46.55;101043.16;4959137;29;1366;-50
2023/09/29 09:21:20;;;;;;;;;;;;;;;16.69;46.32;101042.84;4953092;29;1038;-53
2023/09/29 09:23:45;;;;;;;;;;;;;;;16.66;46.22;101043.38;4960549;29;1069;-51
2023/09/29 09:26:12;;;;;;;;;;;;;;;16.60;46.22;101039.78;4960556;29;994;-52
2023/09/29 09:28:38;;;;;;;;;;;;;;;16.60;46.17;101042.53;4960087;29;1074;-54
2023/09/29 09:31:03;;;;;;;;;;;;;;;17.39;47.35;101046.13;4958297;29;1104;-51
2023/09/29 09:33:31;;;;;;;;;;;;;;;16.95;48.02;101046.56;4960087;29;1415;-53
2023/09/29 09:36:03;;;;;;;;;;;;;;;16.91;47.33;101039.94;4960158;29;1113;-55
2023/09/29 09:38:34;;;;;;;;;;;;;;;16.86;46.81;101051.72;4948116;29;1906;-52
2023/09/29 09:40:59;;;;;;;;;;;;;;;16.80;46.70;101043.72;4960408;29;1113;-54
2023/09/29 09:43:26;;;;;;;;;;;;;;;16.74;46.61;101046.44;4955615;29;1065;-54
2023/09/29 09:46:02;;;;;;;;;;;;;;;16.73;46.39;101055.78;4954253;29;1199;-53
2023/09/29 09:48:27;;;;;;;;;;;;;;;16.74;46.30;101042.88;4959016;29;1074;-55
2023/09/29 09:50:53;;;;;;;;;;;;;;;16.70;45.95;101050.00;4959494;29;1053;-51
2023/09/29 09:53:18;;;;;;;;;;;;;;;16.69;46.07;101042.84;4957980;29;1184;-52
2023/09/29 09:55:50;;;;;;;;;;;;;;;17.46;47.17;101045.88;4954156;29;1177;-55
2023/09/29 09:58:16;;;;;;;;;;;;;;;17.04;47.66;101038.63;4958272;29;1906;-53
2023/09/29 10:00:54;;;;;;;;;;;;;;;16.92;47.31;101036.13;4958685;29;1184;-53
2023/09/29 10:03:20;;;;;;;;;;;;;;;16.83;47.10;101038.53;4959644;29;1144;-55
2023/09/29 10:05:52;;;;;;;;;;;;;;;16.86;46.52;101046.22;4959889;29;1142;-54
2023/09/29 10:08:27;;;;;;;;;;;;;;;16.79;46.49;101040.16;4956093;29;1006;-55
2023/09/29 10:10:53;;;;;;;;;;;;;;;16.76;46.05;101038.78;4958223;29;1087;-54
2023/09/29 10:13:19;;;;;;;;;;;;;;;16.82;46.06;101025.88;4959849;29;1025;-54
2023/09/29 10:15:54;;;;;;;;;;;;;;;16.71;46.22;101038.75;4958892;29;1110;-52
2023/09/29 10:18:20;;;;;;;;;;;;;;;16.77;45.87;101034.09;4959028;28;1975;-54
2023/09/29 10:20:49;;;;;;;;;;;;;;;16.67;46.03;101034.88;4955261;28;1077;-53
2023/09/29 10:23:15;;;;;;;;;;;;;;;16.62;46.19;101031.28;4947036;29;1133;-53
2023/09/29 10:25:50;;;;;;;;;;;;;;;16.68;46.00;101031.06;4957804;29;1145;-53
2023/09/29 10:28:17;;;;;;;;;;;;;;;16.73;45.67;101032.97;4959391;29;1089;-52
2023/09/29 10:30:43;;;;;;;;;;;;;;;16.71;45.72;101030.50;4954434;28;1061;-52
2023/09/29 10:33:13;;;;;;;;;;;;;;;16.72;45.61;101031.34;4947268;29;1111;-51
2023/09/29 10:35:44;;;;;;;;;;;;;;;16.64;45.84;101024.44;4959142;29;1088;-53
2023/09/29 10:38:12;;;;;;;;;;;;;;;16.68;45.68;101020.06;4958932;29;1981;-53
2023/09/29 10:40:38;;;;;;;;;;;;;;;16.57;45.89;101010.13;4958882;29;1077;-53
2023/09/29 10:43:04;;;;;;;;;;;;;;;16.60;45.88;101015.91;4958871;29;999;-52
2023/09/29 10:45:40;;;;;;;;;;;;;;;16.57;46.14;101019.19;4940826;29;1068;-52
2023/09/29 10:48:06;;;;;;;;;;;;;;;16.58;45.78;101015.34;4958960;28;967;-55
2023/09/29 10:50:38;;;;;;;;;;;;;;;17.24;46.56;101021.38;4959124;29;1209;-55
2023/09/29 10:53:04;;;;;;;;;;;;;;;17.10;47.72;101013.63;4958990;29;1180;-55
2023/09/29 10:55:30;;;;;;;;;;;;;;;16.95;47.42;101010.03;4945059;29;1084;-54
2023/09/29 10:57:59;;;;;;;;;;;;;;;16.86;47.09;101012.47;4947418;29;1906;-53
2023/09/29 11:00:25;;;;;;;;;;;;;;;16.85;46.47;101002.56;4958550;28;1077;-56
2023/09/29 11:02:52;;;;;;;;;;;;;;;16.79;46.63;100998.13;4958682;28;1065;-55
2023/09/29 11:05:20;;;;;;;;;;;;;;;16.79;46.40;101000.88;4957486;28;1064;-55
2023/09/29 11:07:50;;;;;;;;;;;;;;;17.57;47.05;101002.69;4941874;29;1066;-55
2023/09/29 11:10:19;;;;;;;;;;;;;;;17.09;47.70;101003.72;4942373;29;1077;-54
2023/09/29 11:12:47;;;;;;;;;;;;;;;16.97;47.07;100999.59;4947693;29;1026;-55
2023/09/29 11:15:13;;;;;;;;;;;;;;;16.95;46.87;101002.59;4944279;29;1085;-54
2023/09/29 11:17:46;;;;;;;;;;;;;;;16.91;46.37;100985.88;4947751;29;1911;-55
2023/09/29 11:20:27;;;;;;;;;;;;;;;16.85;46.58;100988.81;4955873;29;1092;-55
2023/09/29 11:22:59;;;;;;;;;;;;;;;16.84;46.33;100989.91;4958313;29;1070;-55
2023/09/29 11:25:25;;;;;;;;;;;;;;;16.90;46.23;100988.84;4945405;29;1081;-52
2023/09/29 11:27:51;;;;;;;;;;;;;;;16.87;46.32;100989.38;4958592;29;1169;-56
2023/09/29 11:30:17;;;;;;;;;;;;;;;16.83;46.03;100993.75;4957426;28;1049;-56
2023/09/29 11:32:42;;;;;;;;;;;;;;;16.80;46.20;100988.81;4957971;29;1201;-55
2023/09/29 11:35:13;;;;;;;;;;;;;;;16.80;46.00;100984.13;4958303;29;1124;-53
2023/09/29 11:37:42;;;;;;;;;;;;;;;16.76;45.89;100992.09;4945250;29;1914;-54
2023/09/29 11:40:11;;;;;;;;;;;;;;;16.71;46.13;100996.75;4950702;28;1035;-54
2023/09/29 11:42:40;;;;;;;;;;;;;;;16.76;46.18;100985.78;4953227;29;1030;-52
2023/09/29 11:45:08;;;;;;;;;;;;;;;16.74;46.22;100977.78;4956100;29;908;-54
2023/09/29 11:47:34;;;;;;;;;;;;;;;16.80;45.98;100986.88;4945296;29;1028;-55
2023/09/29 11:50:00;;;;;;;;;;;;;;;17.65;47.20;100982.09;4949335;29;1050;-55
2023/09/29 11:52:26;;;;;;;;;;;;;;;17.19;48.05;100975.44;4953999;29;1090;-53
2023/09/29 11:54:52;;;;;;;;;;;;;;;17.02;47.67;100972.94;4949591;29;1051;-54
2023/09/29 11:57:18;;;;;;;;;;;;;;;16.92;47.48;100967.44;4944072;29;1899;-52
2023/09/29 11:59:44;;;;;;;;;;;;;;;17.04;46.84;100973.53;4957686;29;1114;-52
2023/09/29 12:02:09;;;;;;;;;;;;;;;16.87;46.98;100968.25;4957498;29;1117;-51
2023/09/29 12:04:35;;;;;;;;;;;;;;;16.85;46.79;100977.84;4949779;29;1011;-52
2023/09/29 12:07:02;;;;;;;;;;;;;;;16.90;46.55;100966.88;4953890;29;1158;-53
2023/09/29 12:09:28;;;;;;;;;;;;;;;16.81;46.63;100963.00;4954186;29;898;-52
2023/09/29 12:11:53;;;;;;;;;;;;;;;17.22;47.17;100965.84;4957675;29;1025;-53
2023/09/29 12:14:20;;;;;;;;;;;;;;;17.24;48.29;100963.66;4958365;29;1065;-53
2023/09/29 12:16:46;;;;;;;;;;;;;;;17.04;47.88;100973.53;4957551;29;1955;-52
2023/09/29 12:19:12;;;;;;;;;;;;;;;17.10;47.44;100968.88;4957923;29;1038;-53
2023/09/29 12:21:38;;;;;;;;;;;;;;;16.99;47.14;100972.69;4954475;29;1092;-53
2023/09/29 12:24:04;;;;;;;;;;;;;;;16.92;46.98;100970.19;4957562;29;1057;-52
2023/09/29 12:26:29;;;;;;;;;;;;;;;16.89;46.73;100965.25;4958458;29;1057;-52
2023/09/29 12:28:55;;;;;;;;;;;;;;;16.87;46.45;100957.25;4957972;29;1017;-54
2023/09/29 12:31:20;;;;;;;;;;;;;;;16.86;46.40;100961.09;4957663;29;1118;-53
2023/09/29 12:33:46;;;;;;;;;;;;;;;16.84;46.49;100956.97;4952743;29;886;-53
2023/09/29 12:36:11;;;;;;;;;;;;;;;16.74;46.45;100953.06;4956197;29;1060;-53
2023/09/29 12:38:37;;;;;;;;;;;;;;;16.83;46.38;100953.41;4946517;29;1982;-51
2023/09/29 12:41:02;;;;;;;;;;;;;;;16.75;46.54;100959.41;4957106;28;1061;-52
2023/09/29 12:43:28;;;;;;;;;;;;;;;16.80;46.34;100955.84;4960873;29;1108;-51